sensor_id;sensor_type;location;lat;lon;timestamp;P1;durP1;ratioP1;P2;durP2;ratioP2
34924;SDS011;21130;51.728;8.748;2024-01-30T00:00:55;18.77;;;14.65;;
34924;SDS011;21130;51.728;8.748;2024-01-30T00:03:24;18.73;;;13.50;;
34924;SDS011;21130;51.728;8.748;2024-01-30T00:05:51;18.10;;;14.02;;
34924;SDS011;21130;51.728;8.748;2024-01-30T00:08:17;17.58;;;14.65;;
34924;SDS011;21130;51.728;8.748;2024-01-30T00:10:45;17.15;;;13.73;;
34924;SDS011;21130;51.728;8.748;2024-01-30T00:13:14;16.92;;;13.88;;
34924;SDS011;21130;51.728;8.748;2024-01-30T00:15:44;16.45;;;13.23;;
34924;SDS011;21130;51.728;8.748;2024-01-30T00:18:12;16.15;;;13.57;;
34924;SDS011;21130;51.728;8.748;2024-01-30T00:20:39;17.95;;;13.40;;
34924;SDS011;21130;51.728;8.748;2024-01-30T00:23:07;20.27;;;14.20;;
34924;SDS011;21130;51.728;8.748;2024-01-30T00:25:37;17.25;;;14.32;;
34924;SDS011;21130;51.728;8.748;2024-01-30T00:28:08;19.50;;;14.60;;
34924;SDS011;21130;51.728;8.748;2024-01-30T00:30:35;19.15;;;14.43;;
34924;SDS011;21130;51.728;8.748;2024-01-30T00:33:05;17.05;;;13.77;;
34924;SDS011;21130;51.728;8.748;2024-01-30T00:35:33;18.02;;;14.75;;
34924;SDS011;21130;51.728;8.748;2024-01-30T00:37:59;16.50;;;13.13;;
34924;SDS011;21130;51.728;8.748;2024-01-30T00:40:26;15.50;;;13.77;;
34924;SDS011;21130;51.728;8.748;2024-01-30T00:42:53;17.05;;;13.40;;
34924;SDS011;21130;51.728;8.748;2024-01-30T00:45:21;17.98;;;14.20;;
34924;SDS011;21130;51.728;8.748;2024-01-30T00:47:49;16.10;;;13.63;;
34924;SDS011;21130;51.728;8.748;2024-01-30T00:50:16;19.38;;;14.75;;
34924;SDS011;21130;51.728;8.748;2024-01-30T00:52:45;19.15;;;13.82;;
34924;SDS011;21130;51.728;8.748;2024-01-30T00:55:14;19.70;;;15.13;;
34924;SDS011;21130;51.728;8.748;2024-01-30T00:57:41;18.35;;;15.63;;
34924;SDS011;21130;51.728;8.748;2024-01-30T01:00:08;18.70;;;15.60;;
34924;SDS011;21130;51.728;8.748;2024-01-30T01:02:39;18.65;;;14.85;;
34924;SDS011;21130;51.728;8.748;2024-01-30T01:05:07;18.80;;;15.80;;
34924;SDS011;21130;51.728;8.748;2024-01-30T01:07:34;18.80;;;14.88;;
34924;SDS011;21130;51.728;8.748;2024-01-30T01:10:03;17.77;;;14.70;;
34924;SDS011;21130;51.728;8.748;2024-01-30T01:12:32;16.83;;;14.75;;
34924;SDS011;21130;51.728;8.748;2024-01-30T01:14:58;18.40;;;15.15;;
34924;SDS011;21130;51.728;8.748;2024-01-30T01:17:26;20.48;;;15.40;;
34924;SDS011;21130;51.728;8.748;2024-01-30T01:19:54;21.75;;;15.68;;
34924;SDS011;21130;51.728;8.748;2024-01-30T01:22:21;21.75;;;16.23;;
34924;SDS011;21130;51.728;8.748;2024-01-30T01:24:48;20.23;;;15.77;;
34924;SDS011;21130;51.728;8.748;2024-01-30T01:27:14;16.35;;;14.65;;
34924;SDS011;21130;51.728;8.748;2024-01-30T01:29:41;20.08;;;16.15;;
34924;SDS011;21130;51.728;8.748;2024-01-30T01:32:10;18.60;;;15.25;;
34924;SDS011;21130;51.728;8.748;2024-01-30T01:34:39;18.25;;;14.63;;
34924;SDS011;21130;51.728;8.748;2024-01-30T01:37:07;19.13;;;15.77;;
34924;SDS011;21130;51.728;8.748;2024-01-30T01:39:34;19.85;;;15.70;;
34924;SDS011;21130;51.728;8.748;2024-01-30T01:42:01;20.65;;;16.90;;
34924;SDS011;21130;51.728;8.748;2024-01-30T01:44:28;20.23;;;16.98;;
34924;SDS011;21130;51.728;8.748;2024-01-30T01:46:55;23.20;;;17.35;;
34924;SDS011;21130;51.728;8.748;2024-01-30T01:49:25;18.90;;;16.13;;
34924;SDS011;21130;51.728;8.748;2024-01-30T01:51:54;23.33;;;17.13;;
34924;SDS011;21130;51.728;8.748;2024-01-30T01:54:25;20.08;;;15.85;;
34924;SDS011;21130;51.728;8.748;2024-01-30T01:56:54;20.40;;;17.27;;
34924;SDS011;21130;51.728;8.748;2024-01-30T01:59:23;20.20;;;16.13;;
34924;SDS011;21130;51.728;8.748;2024-01-30T02:01:52;23.50;;;17.27;;
34924;SDS011;21130;51.728;8.748;2024-01-30T02:04:21;20.67;;;16.15;;
34924;SDS011;21130;51.728;8.748;2024-01-30T02:06:49;22.85;;;17.73;;
34924;SDS011;21130;51.728;8.748;2024-01-30T02:09:19;22.23;;;17.35;;
34924;SDS011;21130;51.728;8.748;2024-01-30T02:11:48;22.85;;;17.48;;
34924;SDS011;21130;51.728;8.748;2024-01-30T02:14:16;22.98;;;16.92;;
34924;SDS011;21130;51.728;8.748;2024-01-30T02:16:42;21.02;;;17.23;;
34924;SDS011;21130;51.728;8.748;2024-01-30T02:19:09;27.17;;;18.70;;
34924;SDS011;21130;51.728;8.748;2024-01-30T02:21:40;21.42;;;17.52;;
34924;SDS011;21130;51.728;8.748;2024-01-30T02:24:07;24.05;;;18.48;;
34924;SDS011;21130;51.728;8.748;2024-01-30T02:26:34;21.48;;;17.90;;
34924;SDS011;21130;51.728;8.748;2024-01-30T02:29:01;25.05;;;18.48;;
34924;SDS011;21130;51.728;8.748;2024-01-30T02:31:28;24.27;;;19.55;;
34924;SDS011;21130;51.728;8.748;2024-01-30T02:33:59;29.48;;;19.20;;
34924;SDS011;21130;51.728;8.748;2024-01-30T02:36:25;23.92;;;19.48;;
34924;SDS011;21130;51.728;8.748;2024-01-30T02:38:55;22.77;;;19.40;;
34924;SDS011;21130;51.728;8.748;2024-01-30T02:41:24;24.38;;;18.30;;
34924;SDS011;21130;51.728;8.748;2024-01-30T02:43:52;26.35;;;19.17;;
34924;SDS011;21130;51.728;8.748;2024-01-30T02:46:20;24.88;;;18.73;;
34924;SDS011;21130;51.728;8.748;2024-01-30T02:48:47;25.33;;;18.98;;
34924;SDS011;21130;51.728;8.748;2024-01-30T02:51:13;23.85;;;19.15;;
34924;SDS011;21130;51.728;8.748;2024-01-30T02:53:41;26.15;;;18.92;;
34924;SDS011;21130;51.728;8.748;2024-01-30T02:56:10;21.08;;;17.38;;
34924;SDS011;21130;51.728;8.748;2024-01-30T02:58:39;21.75;;;17.30;;
34924;SDS011;21130;51.728;8.748;2024-01-30T03:01:06;22.25;;;17.73;;
34924;SDS011;21130;51.728;8.748;2024-01-30T03:03:33;24.23;;;18.85;;
34924;SDS011;21130;51.728;8.748;2024-01-30T03:06:04;24.38;;;19.05;;
34924;SDS011;21130;51.728;8.748;2024-01-30T03:08:35;25.58;;;18.48;;
34924;SDS011;21130;51.728;8.748;2024-01-30T03:11:03;23.35;;;17.63;;
34924;SDS011;21130;51.728;8.748;2024-01-30T03:13:30;25.55;;;19.23;;
34924;SDS011;21130;51.728;8.748;2024-01-30T03:15:57;25.60;;;19.00;;
34924;SDS011;21130;51.728;8.748;2024-01-30T03:18:24;23.73;;;19.38;;
34924;SDS011;21130;51.728;8.748;2024-01-30T03:20:50;24.75;;;19.00;;
34924;SDS011;21130;51.728;8.748;2024-01-30T03:23:19;22.95;;;18.58;;
34924;SDS011;21130;51.728;8.748;2024-01-30T03:25:46;25.83;;;19.13;;
34924;SDS011;21130;51.728;8.748;2024-01-30T03:28:14;21.60;;;18.55;;
34924;SDS011;21130;51.728;8.748;2024-01-30T03:30:44;22.98;;;18.48;;
34924;SDS011;21130;51.728;8.748;2024-01-30T03:33:10;23.33;;;17.98;;
34924;SDS011;21130;51.728;8.748;2024-01-30T03:35:39;23.42;;;19.35;;
34924;SDS011;21130;51.728;8.748;2024-01-30T03:38:06;26.33;;;18.58;;
34924;SDS011;21130;51.728;8.748;2024-01-30T03:40:34;23.30;;;17.67;;
34924;SDS011;21130;51.728;8.748;2024-01-30T03:43:02;24.15;;;19.13;;
34924;SDS011;21130;51.728;8.748;2024-01-30T03:45:30;27.48;;;18.90;;
34924;SDS011;21130;51.728;8.748;2024-01-30T03:47:58;25.15;;;19.05;;
34924;SDS011;21130;51.728;8.748;2024-01-30T03:50:25;25.27;;;18.98;;
34924;SDS011;21130;51.728;8.748;2024-01-30T03:52:54;26.55;;;18.75;;
34924;SDS011;21130;51.728;8.748;2024-01-30T03:55:23;23.33;;;19.00;;
34924;SDS011;21130;51.728;8.748;2024-01-30T03:57:52;23.98;;;18.67;;
34924;SDS011;21130;51.728;8.748;2024-01-30T04:00:19;25.60;;;19.20;;
34924;SDS011;21130;51.728;8.748;2024-01-30T04:02:46;27.15;;;19.42;;
34924;SDS011;21130;51.728;8.748;2024-01-30T04:05:15;22.92;;;18.05;;
34924;SDS011;21130;51.728;8.748;2024-01-30T04:07:44;26.77;;;18.83;;
34924;SDS011;21130;51.728;8.748;2024-01-30T04:10:11;25.00;;;19.23;;
34924;SDS011;21130;51.728;8.748;2024-01-30T04:12:57;25.95;;;18.23;;
34924;SDS011;21130;51.728;8.748;2024-01-30T04:15:44;25.77;;;19.05;;
34924;SDS011;21130;51.728;8.748;2024-01-30T04:18:30;27.02;;;19.42;;
34924;SDS011;21130;51.728;8.748;2024-01-30T04:21:20;25.20;;;18.63;;
34924;SDS011;21130;51.728;8.748;2024-01-30T04:24:06;23.02;;;18.17;;
34924;SDS011;21130;51.728;8.748;2024-01-30T04:26:53;24.45;;;18.50;;
34924;SDS011;21130;51.728;8.748;2024-01-30T04:29:39;27.40;;;19.23;;
34924;SDS011;21130;51.728;8.748;2024-01-30T04:32:26;27.73;;;18.83;;
34924;SDS011;21130;51.728;8.748;2024-01-30T04:35:13;23.83;;;17.63;;
34924;SDS011;21130;51.728;8.748;2024-01-30T04:38:00;22.92;;;18.77;;
34924;SDS011;21130;51.728;8.748;2024-01-30T04:40:47;25.58;;;18.08;;
34924;SDS011;21130;51.728;8.748;2024-01-30T04:43:33;27.08;;;18.92;;
34924;SDS011;21130;51.728;8.748;2024-01-30T04:46:19;24.15;;;19.00;;
34924;SDS011;21130;51.728;8.748;2024-01-30T04:49:06;27.02;;;19.27;;
34924;SDS011;21130;51.728;8.748;2024-01-30T04:51:53;24.70;;;18.80;;
34924;SDS011;21130;51.728;8.748;2024-01-30T04:54:41;23.60;;;18.80;;
34924;SDS011;21130;51.728;8.748;2024-01-30T04:57:27;23.85;;;17.95;;
34924;SDS011;21130;51.728;8.748;2024-01-30T05:00:14;24.88;;;18.85;;
34924;SDS011;21130;51.728;8.748;2024-01-30T05:03:01;25.42;;;18.10;;
34924;SDS011;21130;51.728;8.748;2024-01-30T05:05:47;24.02;;;18.52;;
34924;SDS011;21130;51.728;8.748;2024-01-30T05:08:39;25.58;;;19.98;;
34924;SDS011;21130;51.728;8.748;2024-01-30T05:11:27;27.83;;;18.67;;
34924;SDS011;21130;51.728;8.748;2024-01-30T05:14:13;29.58;;;20.65;;
34924;SDS011;21130;51.728;8.748;2024-01-30T05:17:01;25.83;;;19.33;;
34924;SDS011;21130;51.728;8.748;2024-01-30T05:19:48;23.67;;;18.50;;
34924;SDS011;21130;51.728;8.748;2024-01-30T05:22:34;26.42;;;19.55;;
34924;SDS011;21130;51.728;8.748;2024-01-30T05:25:20;27.00;;;18.92;;
34924;SDS011;21130;51.728;8.748;2024-01-30T05:28:09;23.77;;;18.05;;
34924;SDS011;21130;51.728;8.748;2024-01-30T05:30:55;26.02;;;19.35;;
34924;SDS011;21130;51.728;8.748;2024-01-30T05:33:43;23.83;;;18.77;;
34924;SDS011;21130;51.728;8.748;2024-01-30T05:36:29;24.75;;;18.67;;
34924;SDS011;21130;51.728;8.748;2024-01-30T05:39:16;23.98;;;18.17;;
34924;SDS011;21130;51.728;8.748;2024-01-30T05:42:02;24.40;;;18.45;;
34924;SDS011;21130;51.728;8.748;2024-01-30T05:44:50;25.63;;;19.13;;
34924;SDS011;21130;51.728;8.748;2024-01-30T05:47:37;23.27;;;17.80;;
34924;SDS011;21130;51.728;8.748;2024-01-30T05:50:23;24.50;;;18.17;;
34924;SDS011;21130;51.728;8.748;2024-01-30T05:53:11;23.50;;;17.80;;
34924;SDS011;21130;51.728;8.748;2024-01-30T05:55:57;24.10;;;18.08;;
34924;SDS011;21130;51.728;8.748;2024-01-30T05:58:44;26.65;;;19.52;;
34924;SDS011;21130;51.728;8.748;2024-01-30T06:01:32;25.52;;;17.77;;
34924;SDS011;21130;51.728;8.748;2024-01-30T06:04:19;26.25;;;18.38;;
34924;SDS011;21130;51.728;8.748;2024-01-30T06:07:07;27.63;;;17.98;;
34924;SDS011;21130;51.728;8.748;2024-01-30T06:09:53;27.48;;;18.58;;
34924;SDS011;21130;51.728;8.748;2024-01-30T06:12:40;28.25;;;19.02;;
34924;SDS011;21130;51.728;8.748;2024-01-30T06:15:26;24.63;;;18.40;;
34924;SDS011;21130;51.728;8.748;2024-01-30T06:18:16;27.63;;;19.23;;
34924;SDS011;21130;51.728;8.748;2024-01-30T06:21:02;27.33;;;18.95;;
34924;SDS011;21130;51.728;8.748;2024-01-30T06:23:50;24.40;;;18.75;;
34924;SDS011;21130;51.728;8.748;2024-01-30T06:26:36;25.88;;;17.90;;
34924;SDS011;21130;51.728;8.748;2024-01-30T06:29:23;26.25;;;17.75;;
34924;SDS011;21130;51.728;8.748;2024-01-30T06:32:12;28.58;;;18.50;;
34924;SDS011;21130;51.728;8.748;2024-01-30T06:35:00;26.73;;;19.42;;
34924;SDS011;21130;51.728;8.748;2024-01-30T06:37:46;26.80;;;18.15;;
34924;SDS011;21130;51.728;8.748;2024-01-30T06:40:33;26.75;;;18.75;;
34924;SDS011;21130;51.728;8.748;2024-01-30T06:43:19;25.25;;;19.83;;
34924;SDS011;21130;51.728;8.748;2024-01-30T06:46:06;26.10;;;20.58;;
34924;SDS011;21130;51.728;8.748;2024-01-30T06:48:52;28.77;;;18.88;;
34924;SDS011;21130;51.728;8.748;2024-01-30T06:51:40;24.70;;;17.83;;
34924;SDS011;21130;51.728;8.748;2024-01-30T06:54:26;24.73;;;17.40;;
34924;SDS011;21130;51.728;8.748;2024-01-30T06:57:13;23.77;;;16.25;;
34924;SDS011;21130;51.728;8.748;2024-01-30T06:59:59;23.98;;;17.63;;
34924;SDS011;21130;51.728;8.748;2024-01-30T07:02:46;24.35;;;18.05;;
34924;SDS011;21130;51.728;8.748;2024-01-30T07:05:32;27.25;;;17.63;;
34924;SDS011;21130;51.728;8.748;2024-01-30T07:08:20;26.35;;;18.17;;
34924;SDS011;21130;51.728;8.748;2024-01-30T07:11:27;27.48;;;16.98;;
34924;SDS011;21130;51.728;8.748;2024-01-30T07:14:31;23.60;;;16.98;;
34924;SDS011;21130;51.728;8.748;2024-01-30T07:17:39;24.35;;;17.42;;
34924;SDS011;21130;51.728;8.748;2024-01-30T07:20:25;27.25;;;18.50;;
34924;SDS011;21130;51.728;8.748;2024-01-30T07:23:12;26.08;;;17.83;;
34924;SDS011;21130;51.728;8.748;2024-01-30T07:26:02;25.83;;;17.23;;
34924;SDS011;21130;51.728;8.748;2024-01-30T07:28:48;22.92;;;17.17;;
34924;SDS011;21130;51.728;8.748;2024-01-30T07:31:36;23.67;;;16.65;;
34924;SDS011;21130;51.728;8.748;2024-01-30T07:34:22;26.83;;;17.90;;
34924;SDS011;21130;51.728;8.748;2024-01-30T07:37:09;22.52;;;16.48;;
34924;SDS011;21130;51.728;8.748;2024-01-30T07:39:58;22.80;;;17.92;;
34924;SDS011;21130;51.728;8.748;2024-01-30T07:42:45;25.17;;;18.25;;
34924;SDS011;21130;51.728;8.748;2024-01-30T07:45:32;27.63;;;17.77;;
34924;SDS011;21130;51.728;8.748;2024-01-30T07:48:18;26.23;;;17.92;;
34924;SDS011;21130;51.728;8.748;2024-01-30T07:51:05;29.20;;;19.55;;
34924;SDS011;21130;51.728;8.748;2024-01-30T07:53:51;27.80;;;20.13;;
34924;SDS011;21130;51.728;8.748;2024-01-30T07:56:37;24.50;;;19.40;;
34924;SDS011;21130;51.728;8.748;2024-01-30T07:59:25;27.25;;;18.83;;
34924;SDS011;21130;51.728;8.748;2024-01-30T08:02:12;26.48;;;18.88;;
34924;SDS011;21130;51.728;8.748;2024-01-30T08:04:58;26.23;;;18.40;;
34924;SDS011;21130;51.728;8.748;2024-01-30T08:07:45;23.88;;;18.55;;
34924;SDS011;21130;51.728;8.748;2024-01-30T08:10:31;21.25;;;16.65;;
34924;SDS011;21130;51.728;8.748;2024-01-30T08:13:18;28.17;;;17.90;;
34924;SDS011;21130;51.728;8.748;2024-01-30T08:16:06;28.27;;;18.50;;
34924;SDS011;21130;51.728;8.748;2024-01-30T08:18:53;26.58;;;17.23;;
34924;SDS011;21130;51.728;8.748;2024-01-30T08:21:42;24.77;;;18.02;;
34924;SDS011;21130;51.728;8.748;2024-01-30T08:24:28;24.38;;;17.75;;
34924;SDS011;21130;51.728;8.748;2024-01-30T08:27:15;30.60;;;20.67;;
34924;SDS011;21130;51.728;8.748;2024-01-30T08:30:02;24.60;;;18.73;;
34924;SDS011;21130;51.728;8.748;2024-01-30T08:32:50;23.13;;;17.65;;
34924;SDS011;21130;51.728;8.748;2024-01-30T08:35:36;20.77;;;15.85;;
34924;SDS011;21130;51.728;8.748;2024-01-30T08:38:23;20.98;;;15.32;;
34924;SDS011;21130;51.728;8.748;2024-01-30T08:41:09;17.80;;;13.93;;
34924;SDS011;21130;51.728;8.748;2024-01-30T08:43:56;15.43;;;12.07;;
34924;SDS011;21130;51.728;8.748;2024-01-30T08:46:42;15.25;;;11.48;;
34924;SDS011;21130;51.728;8.748;2024-01-30T08:49:31;13.27;;;11.25;;
34924;SDS011;21130;51.728;8.748;2024-01-30T08:52:17;12.45;;;10.18;;
34924;SDS011;21130;51.728;8.748;2024-01-30T08:55:04;11.45;;;10.07;;
34924;SDS011;21130;51.728;8.748;2024-01-30T08:57:50;10.52;;;8.95;;
34924;SDS011;21130;51.728;8.748;2024-01-30T09:00:38;10.40;;;9.25;;
34924;SDS011;21130;51.728;8.748;2024-01-30T09:03:24;11.57;;;10.38;;
34924;SDS011;21130;51.728;8.748;2024-01-30T09:06:12;11.88;;;10.57;;
34924;SDS011;21130;51.728;8.748;2024-01-30T09:08:58;10.38;;;9.25;;
34924;SDS011;21130;51.728;8.748;2024-01-30T09:11:45;11.82;;;9.85;;
34924;SDS011;21130;51.728;8.748;2024-01-30T09:14:31;12.38;;;9.38;;
34924;SDS011;21130;51.728;8.748;2024-01-30T09:17:19;11.85;;;9.25;;
34924;SDS011;21130;51.728;8.748;2024-01-30T09:20:06;12.45;;;9.05;;
34924;SDS011;21130;51.728;8.748;2024-01-30T09:22:54;10.90;;;8.73;;
34924;SDS011;21130;51.728;8.748;2024-01-30T09:25:41;9.82;;;8.38;;
34924;SDS011;21130;51.728;8.748;2024-01-30T09:28:27;10.75;;;8.80;;
34924;SDS011;21130;51.728;8.748;2024-01-30T09:31:14;13.50;;;10.40;;
34924;SDS011;21130;51.728;8.748;2024-01-30T09:34:01;10.32;;;8.90;;
34924;SDS011;21130;51.728;8.748;2024-01-30T09:36:47;11.27;;;8.10;;
34924;SDS011;21130;51.728;8.748;2024-01-30T09:39:35;10.55;;;8.73;;
34924;SDS011;21130;51.728;8.748;2024-01-30T09:42:26;9.35;;;7.75;;
34924;SDS011;21130;51.728;8.748;2024-01-30T09:45:14;9.27;;;7.72;;
34924;SDS011;21130;51.728;8.748;2024-01-30T09:48:01;10.48;;;8.20;;
34924;SDS011;21130;51.728;8.748;2024-01-30T09:50:47;9.02;;;8.07;;
34924;SDS011;21130;51.728;8.748;2024-01-30T09:53:34;11.68;;;9.10;;
34924;SDS011;21130;51.728;8.748;2024-01-30T09:56:22;13.80;;;11.07;;
34924;SDS011;21130;51.728;8.748;2024-01-30T09:59:09;9.75;;;7.93;;
34924;SDS011;21130;51.728;8.748;2024-01-30T10:01:56;10.70;;;7.78;;
34924;SDS011;21130;51.728;8.748;2024-01-30T10:04:43;8.57;;;7.45;;
34924;SDS011;21130;51.728;8.748;2024-01-30T10:07:29;8.85;;;7.32;;
34924;SDS011;21130;51.728;8.748;2024-01-30T10:10:16;10.27;;;7.50;;
34924;SDS011;21130;51.728;8.748;2024-01-30T10:13:03;7.22;;;6.40;;
34924;SDS011;21130;51.728;8.748;2024-01-30T10:15:50;10.02;;;7.18;;
34924;SDS011;21130;51.728;8.748;2024-01-30T10:18:40;8.63;;;7.65;;
34924;SDS011;21130;51.728;8.748;2024-01-30T10:21:27;8.93;;;7.55;;
34924;SDS011;21130;51.728;8.748;2024-01-30T10:24:13;11.75;;;8.07;;
34924;SDS011;21130;51.728;8.748;2024-01-30T10:27:00;11.02;;;7.97;;
34924;SDS011;21130;51.728;8.748;2024-01-30T10:29:49;9.00;;;7.57;;
34924;SDS011;21130;51.728;8.748;2024-01-30T10:32:36;11.57;;;7.82;;
34924;SDS011;21130;51.728;8.748;2024-01-30T10:35:23;10.85;;;8.07;;
34924;SDS011;21130;51.728;8.748;2024-01-30T10:38:10;10.93;;;8.23;;
34924;SDS011;21130;51.728;8.748;2024-01-30T10:41:00;9.98;;;8.32;;
34924;SDS011;21130;51.728;8.748;2024-01-30T10:43:50;11.27;;;9.10;;
34924;SDS011;21130;51.728;8.748;2024-01-30T10:46:45;11.43;;;8.43;;
34924;SDS011;21130;51.728;8.748;2024-01-30T10:49:37;11.48;;;8.00;;
34924;SDS011;21130;51.728;8.748;2024-01-30T10:52:25;11.38;;;8.32;;
34924;SDS011;21130;51.728;8.748;2024-01-30T10:55:12;13.38;;;8.07;;
34924;SDS011;21130;51.728;8.748;2024-01-30T10:58:01;14.00;;;8.32;;
34924;SDS011;21130;51.728;8.748;2024-01-30T11:00:48;10.82;;;7.80;;
34924;SDS011;21130;51.728;8.748;2024-01-30T11:03:37;9.65;;;8.00;;
34924;SDS011;21130;51.728;8.748;2024-01-30T11:06:24;10.50;;;7.20;;
34924;SDS011;21130;51.728;8.748;2024-01-30T11:09:11;11.48;;;7.47;;
34924;SDS011;21130;51.728;8.748;2024-01-30T11:11:58;8.57;;;7.57;;
34924;SDS011;21130;51.728;8.748;2024-01-30T11:14:46;10.43;;;7.57;;
34924;SDS011;21130;51.728;8.748;2024-01-30T11:17:42;8.02;;;7.22;;
34924;SDS011;21130;51.728;8.748;2024-01-30T11:20:37;10.32;;;7.40;;
34924;SDS011;21130;51.728;8.748;2024-01-30T11:23:44;9.30;;;7.32;;
34924;SDS011;21130;51.728;8.748;2024-01-30T11:26:49;9.65;;;6.93;;
34924;SDS011;21130;51.728;8.748;2024-01-30T11:29:54;8.50;;;6.90;;
34924;SDS011;21130;51.728;8.748;2024-01-30T11:32:57;9.20;;;6.85;;
34924;SDS011;21130;51.728;8.748;2024-01-30T11:35:46;9.25;;;6.80;;
34924;SDS011;21130;51.728;8.748;2024-01-30T11:38:32;9.93;;;6.93;;
34924;SDS011;21130;51.728;8.748;2024-01-30T11:41:19;9.48;;;7.18;;
34924;SDS011;21130;51.728;8.748;2024-01-30T11:44:06;9.77;;;7.35;;
34924;SDS011;21130;51.728;8.748;2024-01-30T11:46:54;7.78;;;6.43;;
34924;SDS011;21130;51.728;8.748;2024-01-30T11:49:41;8.48;;;6.72;;
34924;SDS011;21130;51.728;8.748;2024-01-30T11:52:29;11.27;;;6.72;;
34924;SDS011;21130;51.728;8.748;2024-01-30T11:55:15;9.25;;;6.15;;
34924;SDS011;21130;51.728;8.748;2024-01-30T11:58:02;6.65;;;5.32;;
34924;SDS011;21130;51.728;8.748;2024-01-30T12:00:52;8.73;;;4.75;;
34924;SDS011;21130;51.728;8.748;2024-01-30T12:03:40;5.63;;;4.75;;
34924;SDS011;21130;51.728;8.748;2024-01-30T12:06:27;10.02;;;5.10;;
34924;SDS011;21130;51.728;8.748;2024-01-30T12:09:15;11.63;;;4.90;;
34924;SDS011;21130;51.728;8.748;2024-01-30T12:12:02;7.75;;;5.00;;
34924;SDS011;21130;51.728;8.748;2024-01-30T12:14:49;7.93;;;5.20;;
34924;SDS011;21130;51.728;8.748;2024-01-30T12:17:36;10.43;;;5.55;;
34924;SDS011;21130;51.728;8.748;2024-01-30T12:20:22;9.25;;;5.40;;
34924;SDS011;21130;51.728;8.748;2024-01-30T12:23:09;8.18;;;5.25;;
34924;SDS011;21130;51.728;8.748;2024-01-30T12:25:56;10.52;;;5.50;;
34924;SDS011;21130;51.728;8.748;2024-01-30T12:28:49;5.15;;;4.47;;
34924;SDS011;21130;51.728;8.748;2024-01-30T12:31:38;12.18;;;5.20;;
34924;SDS011;21130;51.728;8.748;2024-01-30T12:34:24;7.70;;;4.68;;
34924;SDS011;21130;51.728;8.748;2024-01-30T12:37:11;6.53;;;5.35;;
34924;SDS011;21130;51.728;8.748;2024-01-30T12:46:52;7.95;;;5.18;;
34924;SDS011;21130;51.728;8.748;2024-01-30T12:49:38;8.60;;;4.70;;
34924;SDS011;21130;51.728;8.748;2024-01-30T12:52:24;6.75;;;4.50;;
34924;SDS011;21130;51.728;8.748;2024-01-30T12:55:11;9.93;;;4.55;;
34924;SDS011;21130;51.728;8.748;2024-01-30T12:57:58;7.45;;;4.50;;
34924;SDS011;21130;51.728;8.748;2024-01-30T13:00:44;8.45;;;4.55;;
34924;SDS011;21130;51.728;8.748;2024-01-30T13:03:32;7.15;;;4.63;;
34924;SDS011;21130;51.728;8.748;2024-01-30T13:06:18;8.98;;;4.43;;
34924;SDS011;21130;51.728;8.748;2024-01-30T13:09:04;9.10;;;4.32;;
34924;SDS011;21130;51.728;8.748;2024-01-30T13:11:51;6.65;;;4.03;;
34924;SDS011;21130;51.728;8.748;2024-01-30T13:14:37;9.60;;;4.53;;
34924;SDS011;21130;51.728;8.748;2024-01-30T13:17:24;10.30;;;4.18;;
34924;SDS011;21130;51.728;8.748;2024-01-30T13:20:11;7.35;;;4.50;;
34924;SDS011;21130;51.728;8.748;2024-01-30T13:23:01;7.80;;;4.22;;
34924;SDS011;21130;51.728;8.748;2024-01-30T13:25:48;7.35;;;4.50;;
34924;SDS011;21130;51.728;8.748;2024-01-30T13:28:34;8.77;;;4.80;;
34924;SDS011;21130;51.728;8.748;2024-01-30T13:31:21;8.07;;;4.22;;
34924;SDS011;21130;51.728;8.748;2024-01-30T13:34:08;7.60;;;5.50;;
34924;SDS011;21130;51.728;8.748;2024-01-30T13:36:55;7.45;;;4.53;;
34924;SDS011;21130;51.728;8.748;2024-01-30T13:39:42;9.18;;;5.30;;
34924;SDS011;21130;51.728;8.748;2024-01-30T13:42:29;9.40;;;4.65;;
34924;SDS011;21130;51.728;8.748;2024-01-30T13:45:41;8.02;;;4.97;;
34924;SDS011;21130;51.728;8.748;2024-01-30T13:48:28;7.07;;;4.55;;
34924;SDS011;21130;51.728;8.748;2024-01-30T13:51:14;8.45;;;5.22;;
34924;SDS011;21130;51.728;8.748;2024-01-30T13:54:03;9.80;;;4.70;;
34924;SDS011;21130;51.728;8.748;2024-01-30T13:56:50;8.10;;;4.93;;
34924;SDS011;21130;51.728;8.748;2024-01-30T13:59:37;7.30;;;4.68;;
34924;SDS011;21130;51.728;8.748;2024-01-30T14:02:23;9.43;;;5.32;;
34924;SDS011;21130;51.728;8.748;2024-01-30T14:05:10;7.38;;;4.70;;
34924;SDS011;21130;51.728;8.748;2024-01-30T14:07:56;9.25;;;4.90;;
34924;SDS011;21130;51.728;8.748;2024-01-30T14:10:45;9.77;;;5.35;;
34924;SDS011;21130;51.728;8.748;2024-01-30T14:13:31;9.25;;;5.32;;
34924;SDS011;21130;51.728;8.748;2024-01-30T14:16:17;13.40;;;5.53;;
34924;SDS011;21130;51.728;8.748;2024-01-30T14:19:04;8.63;;;5.90;;
34924;SDS011;21130;51.728;8.748;2024-01-30T14:21:51;12.57;;;6.60;;
34924;SDS011;21130;51.728;8.748;2024-01-30T14:24:37;9.98;;;6.22;;
34924;SDS011;21130;51.728;8.748;2024-01-30T14:27:25;11.50;;;5.57;;
34924;SDS011;21130;51.728;8.748;2024-01-30T14:30:11;13.07;;;6.53;;
34924;SDS011;21130;51.728;8.748;2024-01-30T14:32:58;14.40;;;6.50;;
34924;SDS011;21130;51.728;8.748;2024-01-30T14:35:43;10.85;;;5.80;;
34924;SDS011;21130;51.728;8.748;2024-01-30T14:38:28;14.77;;;6.57;;
34924;SDS011;21130;51.728;8.748;2024-01-30T14:41:13;13.63;;;7.05;;
34924;SDS011;21130;51.728;8.748;2024-01-30T14:43:59;11.57;;;6.00;;
34924;SDS011;21130;51.728;8.748;2024-01-30T14:46:46;10.75;;;6.53;;
34924;SDS011;21130;51.728;8.748;2024-01-30T14:49:31;12.82;;;6.43;;
34924;SDS011;21130;51.728;8.748;2024-01-30T14:52:16;11.88;;;6.63;;
34924;SDS011;21130;51.728;8.748;2024-01-30T14:55:01;14.35;;;6.72;;
34924;SDS011;21130;51.728;8.748;2024-01-30T14:57:46;12.93;;;7.38;;
34924;SDS011;21130;51.728;8.748;2024-01-30T15:00:33;15.95;;;7.40;;
34924;SDS011;21130;51.728;8.748;2024-01-30T15:03:21;13.98;;;7.40;;
34924;SDS011;21130;51.728;8.748;2024-01-30T15:06:08;12.48;;;6.57;;
34924;SDS011;21130;51.728;8.748;2024-01-30T15:08:53;12.70;;;7.05;;
34924;SDS011;21130;51.728;8.748;2024-01-30T15:11:38;10.57;;;6.80;;
34924;SDS011;21130;51.728;8.748;2024-01-30T15:14:23;11.98;;;6.60;;
34924;SDS011;21130;51.728;8.748;2024-01-30T15:17:12;11.55;;;7.07;;
34924;SDS011;21130;51.728;8.748;2024-01-30T15:19:57;12.95;;;6.85;;
34924;SDS011;21130;51.728;8.748;2024-01-30T15:22:43;10.88;;;6.80;;
34924;SDS011;21130;51.728;8.748;2024-01-30T15:25:28;10.15;;;7.60;;
34924;SDS011;21130;51.728;8.748;2024-01-30T15:28:14;10.93;;;6.70;;
34924;SDS011;21130;51.728;8.748;2024-01-30T15:30:59;11.45;;;7.50;;
34924;SDS011;21130;51.728;8.748;2024-01-30T15:33:45;14.93;;;7.45;;
34924;SDS011;21130;51.728;8.748;2024-01-30T15:36:31;12.02;;;6.82;;
34924;SDS011;21130;51.728;8.748;2024-01-30T15:39:16;12.70;;;7.25;;
34924;SDS011;21130;51.728;8.748;2024-01-30T15:42:02;11.00;;;6.70;;
34924;SDS011;21130;51.728;8.748;2024-01-30T15:44:47;11.35;;;7.32;;
34924;SDS011;21130;51.728;8.748;2024-01-30T15:47:33;10.98;;;6.40;;
34924;SDS011;21130;51.728;8.748;2024-01-30T15:50:20;11.68;;;6.72;;
34924;SDS011;21130;51.728;8.748;2024-01-30T15:53:06;11.00;;;6.68;;
34924;SDS011;21130;51.728;8.748;2024-01-30T15:55:51;7.43;;;6.25;;
34924;SDS011;21130;51.728;8.748;2024-01-30T15:58:36;10.52;;;6.28;;
34924;SDS011;21130;51.728;8.748;2024-01-30T16:01:03;13.63;;;7.05;;